sensor_id;sensor_type;location;lat;lon;timestamp;P1;durP1;ratioP1;P2;durP2;ratioP2
80850;SDS011;70268;50.292;6.666;2023-07-20T00:00:20;1.45;;;0.95;;
80850;SDS011;70268;50.292;6.666;2023-07-20T00:02:49;2.42;;;1.30;;
80850;SDS011;70268;50.292;6.666;2023-07-20T00:05:18;2.17;;;1.05;;
80850;SDS011;70268;50.292;6.666;2023-07-20T00:07:48;5.65;;;1.23;;
80850;SDS011;70268;50.292;6.666;2023-07-20T00:10:19;1.80;;;1.10;;
80850;SDS011;70268;50.292;6.666;2023-07-20T00:12:47;1.92;;;1.25;;
80850;SDS011;70268;50.292;6.666;2023-07-20T00:15:16;2.38;;;1.10;;
80850;SDS011;70268;50.292;6.666;2023-07-20T00:17:46;1.88;;;0.88;;
80850;SDS011;70268;50.292;6.666;2023-07-20T00:20:14;2.55;;;1.10;;
80850;SDS011;70268;50.292;6.666;2023-07-20T00:22:43;1.88;;;0.68;;
80850;SDS011;70268;50.292;6.666;2023-07-20T00:25:12;1.45;;;1.08;;
80850;SDS011;70268;50.292;6.666;2023-07-20T00:27:41;2.08;;;1.00;;
80850;SDS011;70268;50.292;6.666;2023-07-20T00:30:09;1.80;;;0.80;;
80850;SDS011;70268;50.292;6.666;2023-07-20T00:32:39;2.60;;;0.80;;
80850;SDS011;70268;50.292;6.666;2023-07-20T00:35:09;2.00;;;0.82;;
80850;SDS011;70268;50.292;6.666;2023-07-20T00:37:38;1.17;;;0.90;;
80850;SDS011;70268;50.292;6.666;2023-07-20T00:40:07;1.30;;;0.80;;
80850;SDS011;70268;50.292;6.666;2023-07-20T00:42:36;1.50;;;0.95;;
80850;SDS011;70268;50.292;6.666;2023-07-20T00:45:05;1.38;;;0.90;;
80850;SDS011;70268;50.292;6.666;2023-07-20T00:47:34;1.63;;;1.05;;
80850;SDS011;70268;50.292;6.666;2023-07-20T00:50:06;1.90;;;0.77;;
80850;SDS011;70268;50.292;6.666;2023-07-20T00:52:36;1.20;;;0.88;;
80850;SDS011;70268;50.292;6.666;2023-07-20T00:55:07;3.33;;;1.05;;
80850;SDS011;70268;50.292;6.666;2023-07-20T00:57:37;1.63;;;0.93;;
80850;SDS011;70268;50.292;6.666;2023-07-20T01:00:06;2.22;;;0.98;;
80850;SDS011;70268;50.292;6.666;2023-07-20T01:02:35;1.52;;;0.98;;
80850;SDS011;70268;50.292;6.666;2023-07-20T01:05:04;1.30;;;1.13;;
80850;SDS011;70268;50.292;6.666;2023-07-20T01:07:34;1.70;;;1.00;;
80850;SDS011;70268;50.292;6.666;2023-07-20T01:10:09;0.90;;;0.70;;
80850;SDS011;70268;50.292;6.666;2023-07-20T01:12:41;1.70;;;0.80;;
80850;SDS011;70268;50.292;6.666;2023-07-20T01:15:10;2.53;;;0.80;;
80850;SDS011;70268;50.292;6.666;2023-07-20T01:17:39;2.92;;;1.00;;
80850;SDS011;70268;50.292;6.666;2023-07-20T01:20:08;3.60;;;1.17;;
80850;SDS011;70268;50.292;6.666;2023-07-20T01:22:54;1.27;;;0.90;;
80850;SDS011;70268;50.292;6.666;2023-07-20T01:25:40;1.02;;;0.73;;
80850;SDS011;70268;50.292;6.666;2023-07-20T01:28:27;0.68;;;0.52;;
80850;SDS011;70268;50.292;6.666;2023-07-20T01:31:22;1.20;;;0.90;;
80850;SDS011;70268;50.292;6.666;2023-07-20T01:33:54;1.15;;;0.73;;
80850;SDS011;70268;50.292;6.666;2023-07-20T01:36:24;1.27;;;0.75;;
80850;SDS011;70268;50.292;6.666;2023-07-20T01:38:56;1.23;;;0.60;;
80850;SDS011;70268;50.292;6.666;2023-07-20T01:41:25;0.68;;;0.50;;
80850;SDS011;70268;50.292;6.666;2023-07-20T01:43:57;1.20;;;0.80;;
80850;SDS011;70268;50.292;6.666;2023-07-20T01:46:27;1.08;;;0.55;;
80850;SDS011;70268;50.292;6.666;2023-07-20T01:48:56;0.98;;;0.80;;
80850;SDS011;70268;50.292;6.666;2023-07-20T01:51:26;0.80;;;0.63;;
80850;SDS011;70268;50.292;6.666;2023-07-20T01:53:54;0.85;;;0.63;;
80850;SDS011;70268;50.292;6.666;2023-07-20T01:56:23;0.73;;;0.60;;
80850;SDS011;70268;50.292;6.666;2023-07-20T01:58:51;0.77;;;0.70;;
80850;SDS011;70268;50.292;6.666;2023-07-20T02:01:20;0.88;;;0.60;;
80850;SDS011;70268;50.292;6.666;2023-07-20T02:03:51;0.60;;;0.60;;
80850;SDS011;70268;50.292;6.666;2023-07-20T02:06:20;0.80;;;0.60;;
80850;SDS011;70268;50.292;6.666;2023-07-20T02:08:49;1.08;;;0.60;;
80850;SDS011;70268;50.292;6.666;2023-07-20T02:11:17;0.88;;;0.60;;
80850;SDS011;70268;50.292;6.666;2023-07-20T02:13:46;0.50;;;0.50;;
80850;SDS011;70268;50.292;6.666;2023-07-20T02:16:14;0.93;;;0.82;;
80850;SDS011;70268;50.292;6.666;2023-07-20T02:18:43;0.70;;;0.70;;
80850;SDS011;70268;50.292;6.666;2023-07-20T02:21:13;0.80;;;0.55;;
80850;SDS011;70268;50.292;6.666;2023-07-20T02:23:42;0.68;;;0.50;;
80850;SDS011;70268;50.292;6.666;2023-07-20T02:26:10;0.60;;;0.60;;
80850;SDS011;70268;50.292;6.666;2023-07-20T02:28:39;0.68;;;0.57;;
80850;SDS011;70268;50.292;6.666;2023-07-20T02:31:08;0.60;;;0.50;;
80850;SDS011;70268;50.292;6.666;2023-07-20T02:33:36;0.70;;;0.57;;
80850;SDS011;70268;50.292;6.666;2023-07-20T02:36:05;0.90;;;0.50;;
80850;SDS011;70268;50.292;6.666;2023-07-20T02:38:36;1.02;;;0.50;;
80850;SDS011;70268;50.292;6.666;2023-07-20T02:41:04;2.28;;;0.40;;
80850;SDS011;70268;50.292;6.666;2023-07-20T02:43:33;0.43;;;0.40;;
80850;SDS011;70268;50.292;6.666;2023-07-20T02:46:01;5.72;;;0.63;;
80850;SDS011;70268;50.292;6.666;2023-07-20T02:48:30;1.40;;;0.50;;
80850;SDS011;70268;50.292;6.666;2023-07-20T02:50:58;0.73;;;0.50;;
80850;SDS011;70268;50.292;6.666;2023-07-20T02:53:27;4.88;;;1.13;;
80850;SDS011;70268;50.292;6.666;2023-07-20T02:55:57;7.03;;;1.02;;
80850;SDS011;70268;50.292;6.666;2023-07-20T02:58:25;2.72;;;0.60;;
80850;SDS011;70268;50.292;6.666;2023-07-20T03:00:54;1.92;;;0.80;;
80850;SDS011;70268;50.292;6.666;2023-07-20T03:03:23;4.15;;;0.90;;
80850;SDS011;70268;50.292;6.666;2023-07-20T03:05:51;5.72;;;0.70;;
80850;SDS011;70268;50.292;6.666;2023-07-20T03:08:22;1.27;;;0.68;;
80850;SDS011;70268;50.292;6.666;2023-07-20T03:10:54;3.58;;;0.65;;
80850;SDS011;70268;50.292;6.666;2023-07-20T03:13:26;0.60;;;0.52;;
80850;SDS011;70268;50.292;6.666;2023-07-20T03:15:55;5.35;;;0.95;;
80850;SDS011;70268;50.292;6.666;2023-07-20T03:18:24;3.25;;;0.85;;
80850;SDS011;70268;50.292;6.666;2023-07-20T03:20:54;4.35;;;0.85;;
80850;SDS011;70268;50.292;6.666;2023-07-20T03:23:24;0.80;;;0.57;;
80850;SDS011;70268;50.292;6.666;2023-07-20T03:25:53;1.08;;;0.68;;
80850;SDS011;70268;50.292;6.666;2023-07-20T03:28:22;1.63;;;0.80;;
80850;SDS011;70268;50.292;6.666;2023-07-20T03:30:54;2.15;;;0.77;;
80850;SDS011;70268;50.292;6.666;2023-07-20T03:33:25;5.63;;;0.70;;
80850;SDS011;70268;50.292;6.666;2023-07-20T03:35:54;2.20;;;0.75;;
80850;SDS011;70268;50.292;6.666;2023-07-20T03:38:25;6.40;;;0.60;;
80850;SDS011;70268;50.292;6.666;2023-07-20T03:40:55;2.90;;;0.70;;
80850;SDS011;70268;50.292;6.666;2023-07-20T03:43:24;1.52;;;0.70;;
80850;SDS011;70268;50.292;6.666;2023-07-20T03:45:56;1.38;;;0.70;;
80850;SDS011;70268;50.292;6.666;2023-07-20T03:48:25;2.22;;;1.30;;
80850;SDS011;70268;50.292;6.666;2023-07-20T03:50:56;1.25;;;0.65;;
80850;SDS011;70268;50.292;6.666;2023-07-20T03:53:25;1.80;;;0.65;;
80850;SDS011;70268;50.292;6.666;2023-07-20T03:55:54;2.50;;;0.80;;
80850;SDS011;70268;50.292;6.666;2023-07-20T03:58:23;1.33;;;0.63;;
80850;SDS011;70268;50.292;6.666;2023-07-20T04:00:51;10.38;;;1.67;;
80850;SDS011;70268;50.292;6.666;2023-07-20T04:03:22;1.75;;;0.90;;
80850;SDS011;70268;50.292;6.666;2023-07-20T04:05:53;2.70;;;0.73;;
80850;SDS011;70268;50.292;6.666;2023-07-20T04:08:24;1.70;;;0.80;;
80850;SDS011;70268;50.292;6.666;2023-07-20T04:10:54;0.60;;;0.60;;
80850;SDS011;70268;50.292;6.666;2023-07-20T04:13:23;4.18;;;0.73;;
80850;SDS011;70268;50.292;6.666;2023-07-20T04:15:52;3.15;;;0.77;;
80850;SDS011;70268;50.292;6.666;2023-07-20T04:18:23;0.88;;;0.57;;
80850;SDS011;70268;50.292;6.666;2023-07-20T04:20:52;2.40;;;1.08;;
80850;SDS011;70268;50.292;6.666;2023-07-20T04:23:22;1.58;;;0.70;;
80850;SDS011;70268;50.292;6.666;2023-07-20T04:25:51;1.17;;;0.50;;
80850;SDS011;70268;50.292;6.666;2023-07-20T04:28:21;0.60;;;0.60;;
80850;SDS011;70268;50.292;6.666;2023-07-20T04:30:50;1.65;;;0.65;;
80850;SDS011;70268;50.292;6.666;2023-07-20T04:33:23;0.93;;;0.60;;
80850;SDS011;70268;50.292;6.666;2023-07-20T04:38:28;2.47;;;0.80;;
80850;SDS011;70268;50.292;6.666;2023-07-20T04:41:11;1.10;;;0.77;;
80850;SDS011;70268;50.292;6.666;2023-07-20T04:43:44;0.77;;;0.57;;
80850;SDS011;70268;50.292;6.666;2023-07-20T04:46:17;1.38;;;0.52;;
80850;SDS011;70268;50.292;6.666;2023-07-20T04:48:48;1.52;;;0.65;;
80850;SDS011;70268;50.292;6.666;2023-07-20T04:51:19;2.50;;;0.95;;
80850;SDS011;70268;50.292;6.666;2023-07-20T04:53:52;1.50;;;0.63;;
80850;SDS011;70268;50.292;6.666;2023-07-20T04:56:21;2.47;;;0.57;;
80850;SDS011;70268;50.292;6.666;2023-07-20T04:58:52;2.47;;;0.73;;
80850;SDS011;70268;50.292;6.666;2023-07-20T05:01:21;0.88;;;0.70;;
80850;SDS011;70268;50.292;6.666;2023-07-20T05:03:51;0.73;;;0.65;;
80850;SDS011;70268;50.292;6.666;2023-07-20T05:06:21;2.58;;;0.90;;
80850;SDS011;70268;50.292;6.666;2023-07-20T05:08:50;1.15;;;0.65;;
80850;SDS011;70268;50.292;6.666;2023-07-20T05:11:19;0.98;;;0.52;;
80850;SDS011;70268;50.292;6.666;2023-07-20T05:13:47;5.82;;;1.00;;
80850;SDS011;70268;50.292;6.666;2023-07-20T05:16:16;0.80;;;0.70;;
80850;SDS011;70268;50.292;6.666;2023-07-20T05:18:45;1.73;;;0.80;;
80850;SDS011;70268;50.292;6.666;2023-07-20T05:21:15;2.25;;;1.05;;
80850;SDS011;70268;50.292;6.666;2023-07-20T05:23:44;1.33;;;0.88;;
80850;SDS011;70268;50.292;6.666;2023-07-20T05:26:14;2.05;;;0.85;;
80850;SDS011;70268;50.292;6.666;2023-07-20T05:28:42;1.55;;;0.65;;
80850;SDS011;70268;50.292;6.666;2023-07-20T05:31:11;1.75;;;0.85;;
80850;SDS011;70268;50.292;6.666;2023-07-20T05:33:40;0.90;;;0.70;;
80850;SDS011;70268;50.292;6.666;2023-07-20T05:36:08;1.20;;;0.60;;
80850;SDS011;70268;50.292;6.666;2023-07-20T05:38:38;1.75;;;0.70;;
80850;SDS011;70268;50.292;6.666;2023-07-20T05:41:07;2.58;;;0.85;;
80850;SDS011;70268;50.292;6.666;2023-07-20T05:43:37;4.03;;;0.70;;
80850;SDS011;70268;50.292;6.666;2023-07-20T05:46:06;0.98;;;0.63;;
80850;SDS011;70268;50.292;6.666;2023-07-20T05:48:34;1.00;;;0.65;;
80850;SDS011;70268;50.292;6.666;2023-07-20T05:51:03;1.40;;;0.73;;
80850;SDS011;70268;50.292;6.666;2023-07-20T05:53:32;0.88;;;0.60;;
80850;SDS011;70268;50.292;6.666;2023-07-20T05:56:02;3.20;;;1.20;;
80850;SDS011;70268;50.292;6.666;2023-07-20T05:58:31;1.73;;;0.80;;
80850;SDS011;70268;50.292;6.666;2023-07-20T06:00:59;1.30;;;0.85;;
80850;SDS011;70268;50.292;6.666;2023-07-20T06:03:29;1.95;;;0.98;;
80850;SDS011;70268;50.292;6.666;2023-07-20T06:05:58;0.65;;;0.50;;
80850;SDS011;70268;50.292;6.666;2023-07-20T06:08:29;2.38;;;0.60;;
80850;SDS011;70268;50.292;6.666;2023-07-20T06:10:57;0.80;;;0.60;;
80850;SDS011;70268;50.292;6.666;2023-07-20T06:13:27;1.30;;;0.70;;
80850;SDS011;70268;50.292;6.666;2023-07-20T06:15:56;0.68;;;0.60;;
80850;SDS011;70268;50.292;6.666;2023-07-20T06:18:24;0.57;;;0.50;;
80850;SDS011;70268;50.292;6.666;2023-07-20T06:20:53;2.60;;;0.82;;
80850;SDS011;70268;50.292;6.666;2023-07-20T06:23:22;0.93;;;0.60;;
80850;SDS011;70268;50.292;6.666;2023-07-20T06:25:50;0.60;;;0.60;;
80850;SDS011;70268;50.292;6.666;2023-07-20T06:28:19;0.70;;;0.70;;
80850;SDS011;70268;50.292;6.666;2023-07-20T06:30:48;1.23;;;0.80;;
80850;SDS011;70268;50.292;6.666;2023-07-20T06:33:17;2.95;;;0.60;;
80850;SDS011;70268;50.292;6.666;2023-07-20T06:35:47;1.67;;;0.63;;
80850;SDS011;70268;50.292;6.666;2023-07-20T06:38:15;1.45;;;0.95;;
80850;SDS011;70268;50.292;6.666;2023-07-20T06:40:47;2.25;;;1.20;;
80850;SDS011;70268;50.292;6.666;2023-07-20T06:43:16;1.05;;;0.80;;
80850;SDS011;70268;50.292;6.666;2023-07-20T06:45:52;2.13;;;0.73;;
80850;SDS011;70268;50.292;6.666;2023-07-20T06:48:21;2.00;;;0.70;;
80850;SDS011;70268;50.292;6.666;2023-07-20T06:50:50;2.65;;;0.90;;
80850;SDS011;70268;50.292;6.666;2023-07-20T06:53:18;3.55;;;0.60;;
80850;SDS011;70268;50.292;6.666;2023-07-20T06:55:47;3.60;;;0.70;;
80850;SDS011;70268;50.292;6.666;2023-07-20T06:58:17;1.73;;;0.93;;
80850;SDS011;70268;50.292;6.666;2023-07-20T07:00:46;1.05;;;0.70;;
80850;SDS011;70268;50.292;6.666;2023-07-20T07:03:16;2.60;;;0.77;;
80850;SDS011;70268;50.292;6.666;2023-07-20T07:05:44;1.42;;;0.88;;
80850;SDS011;70268;50.292;6.666;2023-07-20T07:08:17;4.10;;;0.90;;
80850;SDS011;70268;50.292;6.666;2023-07-20T07:10:46;2.45;;;0.75;;
80850;SDS011;70268;50.292;6.666;2023-07-20T07:13:14;1.88;;;1.10;;
80850;SDS011;70268;50.292;6.666;2023-07-20T07:15:44;4.53;;;0.85;;
80850;SDS011;70268;50.292;6.666;2023-07-20T07:18:13;1.42;;;1.20;;
80850;SDS011;70268;50.292;6.666;2023-07-20T07:20:43;1.23;;;0.77;;
80850;SDS011;70268;50.292;6.666;2023-07-20T07:23:18;0.98;;;0.65;;
80850;SDS011;70268;50.292;6.666;2023-07-20T07:25:47;2.15;;;0.70;;
80850;SDS011;70268;50.292;6.666;2023-07-20T07:28:16;1.15;;;0.75;;
80850;SDS011;70268;50.292;6.666;2023-07-20T07:30:44;2.70;;;1.23;;
80850;SDS011;70268;50.292;6.666;2023-07-20T07:33:13;2.40;;;1.00;;
80850;SDS011;70268;50.292;6.666;2023-07-20T07:35:43;1.63;;;1.02;;
80850;SDS011;70268;50.292;6.666;2023-07-20T07:38:12;4.15;;;0.95;;
80850;SDS011;70268;50.292;6.666;2023-07-20T07:41:01;3.97;;;1.33;;
80850;SDS011;70268;50.292;6.666;2023-07-20T07:43:29;1.80;;;0.60;;
80850;SDS011;70268;50.292;6.666;2023-07-20T07:45:58;2.53;;;1.15;;
80850;SDS011;70268;50.292;6.666;2023-07-20T07:48:27;3.47;;;0.80;;
80850;SDS011;70268;50.292;6.666;2023-07-20T07:50:58;1.15;;;0.95;;
80850;SDS011;70268;50.292;6.666;2023-07-20T07:53:26;3.80;;;1.50;;
80850;SDS011;70268;50.292;6.666;2023-07-20T07:55:55;1.25;;;0.75;;
80850;SDS011;70268;50.292;6.666;2023-07-20T07:58:23;1.08;;;0.60;;
80850;SDS011;70268;50.292;6.666;2023-07-20T08:00:52;1.83;;;0.75;;
80850;SDS011;70268;50.292;6.666;2023-07-20T08:03:21;1.45;;;0.85;;
80850;SDS011;70268;50.292;6.666;2023-07-20T08:05:53;2.55;;;0.90;;
80850;SDS011;70268;50.292;6.666;2023-07-20T08:08:23;1.48;;;0.77;;
80850;SDS011;70268;50.292;6.666;2023-07-20T08:10:53;1.23;;;0.88;;
80850;SDS011;70268;50.292;6.666;2023-07-20T08:13:22;1.60;;;0.82;;
80850;SDS011;70268;50.292;6.666;2023-07-20T08:15:50;3.00;;;0.95;;
80850;SDS011;70268;50.292;6.666;2023-07-20T08:18:20;2.35;;;1.00;;
80850;SDS011;70268;50.292;6.666;2023-07-20T08:20:49;2.50;;;1.00;;
80850;SDS011;70268;50.292;6.666;2023-07-20T08:23:18;2.83;;;0.70;;
80850;SDS011;70268;50.292;6.666;2023-07-20T08:25:48;2.65;;;0.80;;
80850;SDS011;70268;50.292;6.666;2023-07-20T08:28:16;1.30;;;0.98;;
80850;SDS011;70268;50.292;6.666;2023-07-20T08:30:46;2.15;;;0.82;;
80850;SDS011;70268;50.292;6.666;2023-07-20T08:33:16;4.78;;;1.15;;
80850;SDS011;70268;50.292;6.666;2023-07-20T08:35:46;3.42;;;0.93;;
80850;SDS011;70268;50.292;6.666;2023-07-20T08:38:15;1.88;;;0.90;;
80850;SDS011;70268;50.292;6.666;2023-07-20T08:40:45;2.78;;;1.30;;
80850;SDS011;70268;50.292;6.666;2023-07-20T08:43:15;5.70;;;1.05;;
80850;SDS011;70268;50.292;6.666;2023-07-20T08:45:45;5.35;;;1.42;;
80850;SDS011;70268;50.292;6.666;2023-07-20T08:48:16;1.23;;;0.77;;
80850;SDS011;70268;50.292;6.666;2023-07-20T08:50:47;2.80;;;1.00;;
80850;SDS011;70268;50.292;6.666;2023-07-20T08:53:17;3.60;;;0.93;;
80850;SDS011;70268;50.292;6.666;2023-07-20T08:55:46;2.78;;;0.93;;
80850;SDS011;70268;50.292;6.666;2023-07-20T08:58:19;1.98;;;1.00;;
80850;SDS011;70268;50.292;6.666;2023-07-20T09:00:48;2.35;;;0.90;;
80850;SDS011;70268;50.292;6.666;2023-07-20T09:03:19;3.53;;;1.13;;
80850;SDS011;70268;50.292;6.666;2023-07-20T09:05:48;2.97;;;1.00;;
80850;SDS011;70268;50.292;6.666;2023-07-20T09:08:16;3.03;;;0.93;;
80850;SDS011;70268;50.292;6.666;2023-07-20T09:10:45;5.07;;;1.13;;
80850;SDS011;70268;50.292;6.666;2023-07-20T09:13:14;1.67;;;1.08;;
80850;SDS011;70268;50.292;6.666;2023-07-20T09:15:48;6.65;;;1.20;;
80850;SDS011;70268;50.292;6.666;2023-07-20T09:18:24;3.38;;;1.10;;
80850;SDS011;70268;50.292;6.666;2023-07-20T09:20:57;1.70;;;0.85;;
80850;SDS011;70268;50.292;6.666;2023-07-20T09:23:31;2.00;;;0.98;;
80850;SDS011;70268;50.292;6.666;2023-07-20T09:26:00;1.38;;;1.00;;
80850;SDS011;70268;50.292;6.666;2023-07-20T09:28:29;4.65;;;1.15;;
80850;SDS011;70268;50.292;6.666;2023-07-20T09:30:59;4.78;;;1.08;;
80850;SDS011;70268;50.292;6.666;2023-07-20T09:33:44;1.45;;;1.02;;
80850;SDS011;70268;50.292;6.666;2023-07-20T09:36:15;4.25;;;1.30;;
80850;SDS011;70268;50.292;6.666;2023-07-20T09:39:04;3.30;;;1.30;;
80850;SDS011;70268;50.292;6.666;2023-07-20T09:41:39;1.45;;;1.35;;
80850;SDS011;70268;50.292;6.666;2023-07-20T09:44:13;2.70;;;1.17;;
80850;SDS011;70268;50.292;6.666;2023-07-20T09:46:47;1.77;;;1.10;;
80850;SDS011;70268;50.292;6.666;2023-07-20T09:49:19;2.13;;;1.00;;
80850;SDS011;70268;50.292;6.666;2023-07-20T09:51:51;4.28;;;1.13;;
80850;SDS011;70268;50.292;6.666;2023-07-20T09:54:22;2.45;;;1.00;;
80850;SDS011;70268;50.292;6.666;2023-07-20T09:56:55;1.75;;;0.85;;
80850;SDS011;70268;50.292;6.666;2023-07-20T09:59:24;5.22;;;1.10;;
80850;SDS011;70268;50.292;6.666;2023-07-20T10:01:55;2.15;;;1.27;;
80850;SDS011;70268;50.292;6.666;2023-07-20T10:04:27;1.57;;;1.20;;
80850;SDS011;70268;50.292;6.666;2023-07-20T10:06:57;1.40;;;0.98;;
80850;SDS011;70268;50.292;6.666;2023-07-20T10:09:28;1.58;;;1.05;;
80850;SDS011;70268;50.292;6.666;2023-07-20T10:11:57;6.65;;;1.33;;
80850;SDS011;70268;50.292;6.666;2023-07-20T10:14:44;1.10;;;0.80;;
80850;SDS011;70268;50.292;6.666;2023-07-20T10:17:22;4.85;;;1.00;;
80850;SDS011;70268;50.292;6.666;2023-07-20T10:19:54;4.70;;;1.20;;
80850;SDS011;70268;50.292;6.666;2023-07-20T10:22:30;2.63;;;1.70;;
80850;SDS011;70268;50.292;6.666;2023-07-20T10:25:08;3.00;;;1.23;;
80850;SDS011;70268;50.292;6.666;2023-07-20T10:27:38;2.90;;;1.23;;
80850;SDS011;70268;50.292;6.666;2023-07-20T10:30:07;5.25;;;1.30;;
80850;SDS011;70268;50.292;6.666;2023-07-20T10:32:37;4.38;;;1.40;;
80850;SDS011;70268;50.292;6.666;2023-07-20T10:35:12;8.30;;;2.40;;
80850;SDS011;70268;50.292;6.666;2023-07-20T10:37:46;1.92;;;1.00;;
80850;SDS011;70268;50.292;6.666;2023-07-20T10:40:32;4.25;;;1.30;;
80850;SDS011;70268;50.292;6.666;2023-07-20T10:43:04;4.22;;;1.30;;
80850;SDS011;70268;50.292;6.666;2023-07-20T10:45:47;2.67;;;1.00;;
80850;SDS011;70268;50.292;6.666;2023-07-20T10:48:20;7.22;;;2.10;;
80850;SDS011;70268;50.292;6.666;2023-07-20T10:53:37;6.68;;;1.77;;
80850;SDS011;70268;50.292;6.666;2023-07-20T10:56:06;6.13;;;1.30;;
80850;SDS011;70268;50.292;6.666;2023-07-20T10:58:39;5.67;;;1.97;;
80850;SDS011;70268;50.292;6.666;2023-07-20T11:01:11;11.25;;;1.52;;
80850;SDS011;70268;50.292;6.666;2023-07-20T11:03:48;3.77;;;1.97;;
80850;SDS011;70268;50.292;6.666;2023-07-20T11:06:29;1.73;;;1.20;;
80850;SDS011;70268;50.292;6.666;2023-07-20T11:12:08;4.07;;;1.35;;
80850;SDS011;70268;50.292;6.666;2023-07-20T11:14:41;4.47;;;1.58;;
80850;SDS011;70268;50.292;6.666;2023-07-20T11:17:11;6.03;;;1.80;;
80850;SDS011;70268;50.292;6.666;2023-07-20T11:19:41;1.67;;;1.05;;
80850;SDS011;70268;50.292;6.666;2023-07-20T11:22:13;2.45;;;1.30;;
80850;SDS011;70268;50.292;6.666;2023-07-20T11:24:44;2.13;;;1.20;;
80850;SDS011;70268;50.292;6.666;2023-07-20T11:27:13;4.22;;;1.33;;
80850;SDS011;70268;50.292;6.666;2023-07-20T11:29:41;5.72;;;1.17;;
80850;SDS011;70268;50.292;6.666;2023-07-20T11:32:10;2.03;;;1.13;;
80850;SDS011;70268;50.292;6.666;2023-07-20T11:34:39;2.03;;;1.02;;
80850;SDS011;70268;50.292;6.666;2023-07-20T11:37:09;2.20;;;1.40;;
80850;SDS011;70268;50.292;6.666;2023-07-20T11:39:38;1.80;;;1.13;;
80850;SDS011;70268;50.292;6.666;2023-07-20T11:42:07;2.63;;;0.95;;
80850;SDS011;70268;50.292;6.666;2023-07-20T11:44:36;3.42;;;1.35;;
80850;SDS011;70268;50.292;6.666;2023-07-20T11:47:06;8.52;;;2.50;;
80850;SDS011;70268;50.292;6.666;2023-07-20T11:49:37;8.88;;;2.35;;
80850;SDS011;70268;50.292;6.666;2023-07-20T11:52:07;8.30;;;3.20;;
80850;SDS011;70268;50.292;6.666;2023-07-20T11:54:38;7.45;;;2.63;;
80850;SDS011;70268;50.292;6.666;2023-07-20T11:57:15;7.70;;;2.42;;
80850;SDS011;70268;50.292;6.666;2023-07-20T11:59:52;8.73;;;2.88;;
80850;SDS011;70268;50.292;6.666;2023-07-20T12:02:21;6.28;;;2.00;;
80850;SDS011;70268;50.292;6.666;2023-07-20T12:04:52;4.78;;;2.95;;
80850;SDS011;70268;50.292;6.666;2023-07-20T12:07:26;11.23;;;3.35;;
80850;SDS011;70268;50.292;6.666;2023-07-20T12:10:02;7.53;;;1.92;;
80850;SDS011;70268;50.292;6.666;2023-07-20T12:12:32;4.10;;;1.90;;
80850;SDS011;70268;50.292;6.666;2023-07-20T12:15:14;5.45;;;2.42;;
80850;SDS011;70268;50.292;6.666;2023-07-20T12:17:43;10.20;;;2.03;;
80850;SDS011;70268;50.292;6.666;2023-07-20T12:20:12;6.25;;;2.00;;
80850;SDS011;70268;50.292;6.666;2023-07-20T12:22:43;6.28;;;1.77;;
80850;SDS011;70268;50.292;6.666;2023-07-20T12:25:11;5.40;;;1.48;;
80850;SDS011;70268;50.292;6.666;2023-07-20T12:27:40;4.07;;;1.77;;
80850;SDS011;70268;50.292;6.666;2023-07-20T12:30:10;6.82;;;2.05;;
80850;SDS011;70268;50.292;6.666;2023-07-20T12:32:40;4.03;;;1.58;;
80850;SDS011;70268;50.292;6.666;2023-07-20T12:35:09;4.13;;;1.83;;
80850;SDS011;70268;50.292;6.666;2023-07-20T12:37:38;5.25;;;1.75;;
80850;SDS011;70268;50.292;6.666;2023-07-20T12:40:09;5.65;;;1.38;;
80850;SDS011;70268;50.292;6.666;2023-07-20T12:42:37;2.08;;;1.10;;
80850;SDS011;70268;50.292;6.666;2023-07-20T12:45:07;3.10;;;1.50;;
80850;SDS011;70268;50.292;6.666;2023-07-20T12:47:37;3.33;;;0.90;;
80850;SDS011;70268;50.292;6.666;2023-07-20T12:50:06;1.27;;;1.05;;
80850;SDS011;70268;50.292;6.666;2023-07-20T12:52:35;1.23;;;1.00;;
80850;SDS011;70268;50.292;6.666;2023-07-20T12:55:05;4.40;;;1.38;;
80850;SDS011;70268;50.292;6.666;2023-07-20T12:57:37;5.15;;;1.15;;
80850;SDS011;70268;50.292;6.666;2023-07-20T13:00:06;5.78;;;1.13;;
80850;SDS011;70268;50.292;6.666;2023-07-20T13:02:38;4.20;;;1.17;;
80850;SDS011;70268;50.292;6.666;2023-07-20T13:05:07;2.63;;;1.10;;
80850;SDS011;70268;50.292;6.666;2023-07-20T13:07:37;3.83;;;1.35;;
80850;SDS011;70268;50.292;6.666;2023-07-20T13:10:10;2.13;;;1.40;;
80850;SDS011;70268;50.292;6.666;2023-07-20T13:12:40;3.72;;;1.38;;
80850;SDS011;70268;50.292;6.666;2023-07-20T13:15:09;2.58;;;1.17;;
80850;SDS011;70268;50.292;6.666;2023-07-20T13:17:39;3.00;;;1.00;;
80850;SDS011;70268;50.292;6.666;2023-07-20T13:20:08;4.88;;;1.27;;
80850;SDS011;70268;50.292;6.666;2023-07-20T13:22:38;1.88;;;1.48;;
80850;SDS011;70268;50.292;6.666;2023-07-20T13:25:07;3.85;;;1.10;;
80850;SDS011;70268;50.292;6.666;2023-07-20T13:27:36;2.10;;;1.00;;
80850;SDS011;70268;50.292;6.666;2023-07-20T13:30:07;3.85;;;1.50;;
80850;SDS011;70268;50.292;6.666;2023-07-20T13:32:40;2.17;;;0.93;;
80850;SDS011;70268;50.292;6.666;2023-07-20T13:35:10;2.22;;;1.00;;
80850;SDS011;70268;50.292;6.666;2023-07-20T13:37:39;1.95;;;1.33;;
80850;SDS011;70268;50.292;6.666;2023-07-20T13:40:08;3.60;;;1.63;;
80850;SDS011;70268;50.292;6.666;2023-07-20T13:42:40;2.55;;;0.98;;
80850;SDS011;70268;50.292;6.666;2023-07-20T13:45:10;2.40;;;1.13;;
80850;SDS011;70268;50.292;6.666;2023-07-20T13:47:39;1.90;;;1.10;;
80850;SDS011;70268;50.292;6.666;2023-07-20T13:50:09;6.40;;;1.20;;
80850;SDS011;70268;50.292;6.666;2023-07-20T13:52:52;1.73;;;1.08;;
80850;SDS011;70268;50.292;6.666;2023-07-20T13:55:41;1.42;;;1.23;;
80850;SDS011;70268;50.292;6.666;2023-07-20T13:58:12;2.15;;;1.33;;
80850;SDS011;70268;50.292;6.666;2023-07-20T14:00:42;4.03;;;1.45;;
80850;SDS011;70268;50.292;6.666;2023-07-20T14:03:11;2.65;;;1.30;;
80850;SDS011;70268;50.292;6.666;2023-07-20T14:05:42;6.70;;;1.40;;
80850;SDS011;70268;50.292;6.666;2023-07-20T14:08:14;3.38;;;1.20;;
80850;SDS011;70268;50.292;6.666;2023-07-20T14:10:43;8.43;;;1.30;;
80850;SDS011;70268;50.292;6.666;2023-07-20T14:13:14;6.22;;;1.40;;
80850;SDS011;70268;50.292;6.666;2023-07-20T14:15:44;4.00;;;1.27;;
80850;SDS011;70268;50.292;6.666;2023-07-20T14:18:13;7.20;;;1.48;;
80850;SDS011;70268;50.292;6.666;2023-07-20T14:20:45;3.30;;;1.02;;
80850;SDS011;70268;50.292;6.666;2023-07-20T14:23:13;6.40;;;1.27;;
80850;SDS011;70268;50.292;6.666;2023-07-20T14:25:42;2.00;;;1.13;;
80850;SDS011;70268;50.292;6.666;2023-07-20T14:28:10;2.97;;;1.15;;
80850;SDS011;70268;50.292;6.666;2023-07-20T14:30:39;4.68;;;1.40;;
80850;SDS011;70268;50.292;6.666;2023-07-20T14:33:10;1.55;;;0.77;;
80850;SDS011;70268;50.292;6.666;2023-07-20T14:35:38;2.30;;;0.80;;
80850;SDS011;70268;50.292;6.666;2023-07-20T14:38:07;2.47;;;1.13;;
80850;SDS011;70268;50.292;6.666;2023-07-20T14:40:35;1.35;;;0.70;;
80850;SDS011;70268;50.292;6.666;2023-07-20T14:43:04;1.13;;;0.80;;
80850;SDS011;70268;50.292;6.666;2023-07-20T14:45:32;2.80;;;1.00;;
80850;SDS011;70268;50.292;6.666;2023-07-20T14:48:01;3.05;;;0.80;;
80850;SDS011;70268;50.292;6.666;2023-07-20T14:50:31;3.55;;;1.38;;
80850;SDS011;70268;50.292;6.666;2023-07-20T14:52:59;3.95;;;1.08;;
80850;SDS011;70268;50.292;6.666;2023-07-20T14:55:32;3.55;;;1.25;;
80850;SDS011;70268;50.292;6.666;2023-07-20T14:58:01;6.20;;;1.30;;
80850;SDS011;70268;50.292;6.666;2023-07-20T15:00:30;4.80;;;1.10;;
80850;SDS011;70268;50.292;6.666;2023-07-20T15:02:58;4.00;;;1.48;;
80850;SDS011;70268;50.292;6.666;2023-07-20T15:05:27;3.20;;;1.17;;
80850;SDS011;70268;50.292;6.666;2023-07-20T15:07:57;2.03;;;0.98;;
80850;SDS011;70268;50.292;6.666;2023-07-20T15:10:25;2.53;;;1.25;;
80850;SDS011;70268;50.292;6.666;2023-07-20T15:12:54;1.98;;;1.20;;
80850;SDS011;70268;50.292;6.666;2023-07-20T15:15:22;1.73;;;1.10;;